LYBE/BEG METAR and TAF weather

Enter ICAO airport designator
Station Type Date Time Source
LYBE METAR 2021/02/28 03:00 UTC NOAA

LYBE 280300Z 28006KT CAVOK 05/01 Q1033 NOSIG


Station Type Date Time Source
LYBE Decoded METAR 2021/02/28 03:00 UTC NOAA

Beograd / Surcin, Serbia and Montenegro (LYBE) 44-49N 020-17E 99M
Feb 27, 2021 - 10:00 PM EST / 2021.02.28 0300 UTC
Wind: from the W (280 degrees) at 7 MPH (6 KT):0
Visibility: greater than 7 mile(s):0
Temperature: 41 F (5 C)
Dew Point: 33 F (1 C)
Relative Humidity: 75%
Pressure (altimeter): 30.50 in. Hg (1033 hPa)
ob: LYBE 280300Z 28006KT CAVOK 05/01 Q1033 NOSIG
cycle: 3

Station Type Date Time Source
LYBE TAF 2021/02/27 18:26 UTC NOAA

TAF LYBE 271700Z 2718/2818 02008KT 9999 SCT040 TX13/2813Z TN02/2805Z

Example: see airport list